createdAt,value
2024-03-18T00:01:43.270Z,98266.41
2024-03-18T00:04:10.756Z,98266.90
2024-03-18T00:06:38.111Z,98266.57
2024-03-18T00:09:05.446Z,98262.65
2024-03-18T00:11:32.825Z,98259.94
2024-03-18T00:14:00.334Z,98259.92
2024-03-18T00:16:27.893Z,98259.02
2024-03-18T00:18:55.316Z,98261.64
2024-03-18T00:21:22.805Z,98260.50
2024-03-18T00:27:18.118Z,98257.71
2024-03-18T00:29:48.549Z,98258.66
2024-03-18T00:32:19.614Z,98249.39
2024-03-18T00:34:47.152Z,98251.60
2024-03-18T00:37:14.615Z,98247.30
2024-03-18T00:39:44.959Z,98248.77
2024-03-18T00:42:12.363Z,98250.19
2024-03-18T00:44:39.893Z,98246.31
2024-03-18T00:47:08.151Z,98242.64
2024-03-18T00:49:35.613Z,98240.14
2024-03-18T00:52:06.145Z,98235.90
2024-03-18T00:54:38.960Z,98233.40
2024-03-18T01:05:04.723Z,98215.55
2024-03-18T01:07:32.112Z,98215.41
2024-03-18T01:09:59.670Z,98208.06
2024-03-18T01:12:30.840Z,98202.06
2024-03-18T01:14:58.424Z,98200.77
2024-03-18T01:17:25.807Z,98199.44
2024-03-18T01:19:53.228Z,98200.31
2024-03-18T01:22:21.424Z,98200.54
2024-03-18T01:24:48.891Z,98194.48
2024-03-18T01:27:19.401Z,98196.16
2024-03-18T01:29:46.794Z,98190.64
2024-03-18T01:32:14.226Z,98186.14
2024-03-18T01:34:44.656Z,98180.50
2024-03-18T01:37:12.177Z,98174.06
2024-03-18T01:39:39.699Z,98170.01
2024-03-18T01:42:11.934Z,98172.39
2024-03-18T01:44:52.711Z,98177.95
2024-03-18T01:47:53.141Z,98174.64
2024-03-18T01:50:20.980Z,98175.75
2024-03-18T01:52:48.724Z,98173.94
2024-03-18T01:55:16.763Z,98174.07
2024-03-18T01:57:45.971Z,98174.77
2024-03-18T02:00:24.291Z,98173.30
2024-03-18T02:02:51.764Z,98170.43
2024-03-18T02:05:19.255Z,98168.45
2024-03-18T02:07:46.705Z,98164.71
2024-03-18T02:10:14.188Z,98165.17
2024-03-18T02:12:41.704Z,98169.55
2024-03-18T02:15:09.566Z,98174.92
2024-03-18T02:17:41.772Z,98179.85
2024-03-18T02:20:10.528Z,98178.95
2024-03-18T02:22:39.284Z,98180.31
2024-03-18T02:25:07.798Z,98177.50
2024-03-18T02:27:35.241Z,98176.88
2024-03-18T02:30:02.603Z,98176.61
2024-03-18T02:32:31.705Z,98173.13
2024-03-18T02:34:59.978Z,98172.57
2024-03-18T02:37:27.329Z,98170.35
2024-03-18T02:39:54.785Z,98167.73
2024-03-18T02:42:22.167Z,98161.60
2024-03-18T02:44:49.610Z,98160.36
2024-03-18T02:47:19.320Z,98161.02
2024-03-18T02:52:29.445Z,98159.88
2024-03-18T02:55:05.032Z,98160.64
2024-03-18T02:57:32.788Z,98161.13
2024-03-18T03:00:01.078Z,98160.85
2024-03-18T03:02:33.961Z,98163.44
2024-03-18T03:05:05.672Z,98163.34
2024-03-18T03:12:01.600Z,98155.55
2024-03-18T03:14:48.576Z,98146.61
2024-03-18T03:17:15.334Z,98147.91
2024-03-18T03:19:43.224Z,98144.55
2024-03-18T03:22:10.160Z,98146.70
2024-03-18T03:24:39.266Z,98143.15
2024-03-18T03:27:07.068Z,98140.81
2024-03-18T03:29:34.471Z,98138.91
2024-03-18T03:32:06.130Z,98137.31
2024-03-18T03:34:32.893Z,98139.85
2024-03-18T03:37:02.292Z,98142.27
2024-03-18T03:39:30.031Z,98134.44
2024-03-18T03:41:57.046Z,98133.50
2024-03-18T03:44:23.710Z,98131.52
2024-03-18T03:46:51.662Z,98132.88
2024-03-18T03:49:18.596Z,98133.91
2024-03-18T03:51:46.279Z,98133.60
2024-03-18T03:54:14.106Z,98133.61
2024-03-18T03:56:46.094Z,98134.81
2024-03-18T03:59:12.780Z,98128.17
2024-03-18T04:01:39.873Z,98131.95
2024-03-18T04:04:06.536Z,98133.02
2024-03-18T04:06:33.273Z,98122.77
2024-03-18T04:09:02.577Z,98126.45
2024-03-18T04:11:29.627Z,98130.43
2024-03-18T04:13:56.740Z,98135.40
2024-03-18T04:16:23.688Z,98137.60
2024-03-18T04:18:53.249Z,98140.08
2024-03-18T04:21:20.208Z,98136.52
2024-03-18T04:23:47.427Z,98133.52
2024-03-18T04:26:14.165Z,98136.48
2024-03-18T04:28:52.004Z,98136.43
2024-03-18T04:32:09.126Z,98132.66
2024-03-18T04:34:39.455Z,98133.35
2024-03-18T04:37:06.458Z,98127.08
2024-03-18T04:39:33.859Z,98123.18
2024-03-18T04:42:00.692Z,98119.70
2024-03-18T04:44:27.592Z,98115.14
2024-03-18T04:46:54.276Z,98120.33
2024-03-18T04:49:21.324Z,98124.95
2024-03-18T04:51:48.088Z,98126.35
2024-03-18T04:57:01.744Z,98126.90
2024-03-18T04:59:29.183Z,98131.55
2024-03-18T05:01:56.666Z,98136.45
2024-03-18T05:04:24.145Z,98139.98
2024-03-18T05:06:56.759Z,98141.23
2024-03-18T05:09:25.006Z,98137.28
2024-03-18T05:11:52.542Z,98140.86
2024-03-18T05:14:23.980Z,98141.16
2024-03-18T05:16:51.541Z,98140.52
2024-03-18T05:19:18.809Z,98127.79
2024-03-18T05:21:47.212Z,98126.17
2024-03-18T05:24:14.517Z,98130.42
2024-03-18T05:26:41.953Z,98131.36
2024-03-18T05:29:09.418Z,98133.89
2024-03-18T05:31:36.903Z,98128.86
2024-03-18T05:34:06.916Z,98131.42
2024-03-18T05:36:34.446Z,98133.05
2024-03-18T05:39:02.077Z,98138.39
2024-03-18T05:41:33.546Z,98141.01
2024-03-18T05:44:01.021Z,98144.41
2024-03-18T05:46:28.481Z,98144.91
2024-03-18T05:48:55.850Z,98148.02
2024-03-18T05:51:23.242Z,98150.24
2024-03-18T06:07:39.316Z,98157.29
2024-03-18T06:10:09.403Z,98159.53
2024-03-18T06:12:36.895Z,98161.38
2024-03-18T06:15:04.733Z,98166.02
2024-03-18T06:17:32.596Z,98166.25
2024-03-18T06:20:08.463Z,98166.53
2024-03-18T06:22:39.593Z,98169.50
2024-03-18T06:25:29.908Z,98164.38
2024-03-18T06:27:57.375Z,98159.36
2024-03-18T06:30:25.066Z,98158.45
2024-03-18T06:32:52.707Z,98163.20
2024-03-18T06:35:20.273Z,98164.97
2024-03-18T06:37:47.790Z,98162.70
2024-03-18T06:40:15.658Z,98163.98
2024-03-18T06:42:43.068Z,98168.66
2024-03-18T06:45:10.844Z,98166.73
2024-03-18T06:47:38.753Z,98165.29
2024-03-18T06:50:06.552Z,98168.21
2024-03-18T06:52:34.712Z,98164.20
2024-03-18T06:55:04.634Z,98161.65
2024-03-18T06:57:32.064Z,98159.25
2024-03-18T07:00:01.323Z,98158.53
2024-03-18T07:02:28.833Z,98159.33
2024-03-18T07:04:56.415Z,98157.56
2024-03-18T07:07:24.098Z,98157.05
2024-03-18T07:09:51.759Z,98161.14
2024-03-18T07:12:19.496Z,98168.52
2024-03-18T07:16:26.122Z,98163.73
2024-03-18T07:18:53.619Z,98168.55
2024-03-18T07:21:21.219Z,98175.80
2024-03-18T07:23:48.885Z,98174.34
2024-03-18T07:26:17.784Z,98175.24
2024-03-18T07:28:48.215Z,98174.02
2024-03-18T07:31:15.739Z,98173.52
2024-03-18T07:33:43.299Z,98172.83
2024-03-18T07:36:10.669Z,98168.68
2024-03-18T07:38:39.259Z,98167.54
2024-03-18T07:41:12.048Z,98166.73
2024-03-18T07:43:45.315Z,98170.34
2024-03-18T07:46:12.744Z,98168.67
2024-03-18T07:48:40.184Z,98166.80
2024-03-18T07:51:09.691Z,98166.67
2024-03-18T07:53:39.882Z,98170.46
2024-03-18T07:58:37.654Z,98169.84
2024-03-18T08:01:05.225Z,98169.33
2024-03-18T08:03:39.726Z,98169.64
2024-03-18T08:06:10.048Z,98169.45
2024-03-18T17:15:20.161Z,98260.85
2024-03-18T17:17:50.879Z,98262.40
2024-03-18T17:20:18.752Z,98262.60
2024-03-18T17:22:47.503Z,98263.48
2024-03-18T17:25:15.472Z,98262.64
2024-03-18T17:27:42.957Z,98261.84
2024-03-18T17:30:11.342Z,98266.19
2024-03-18T17:32:38.828Z,98269.23
2024-03-18T17:35:06.967Z,98273.39
2024-03-18T17:40:05.618Z,98274.64
2024-03-18T17:42:36.928Z,98273.57
2024-03-18T17:45:04.714Z,98270.39
2024-03-18T17:47:32.433Z,98275.88
2024-03-18T17:50:00.322Z,98275.02
2024-03-18T17:52:27.799Z,98272.89
2024-03-18T17:54:55.275Z,98276.95
2024-03-18T17:57:40.249Z,98278.00
2024-03-18T18:00:09.896Z,98277.67
2024-03-18T18:02:38.542Z,98277.50
2024-03-18T18:05:06.143Z,98278.77
2024-03-18T18:07:33.671Z,98279.06
2024-03-18T18:10:01.069Z,98277.11
